Time,TemperatureF,DewpointF,PressureIn,WindDirection,WindDirectionDegrees,WindSpeedMPH,WindSpeedGustMPH,Humidity,HourlyPrecipIn,Conditions,Clouds,dailyrainin,SolarRadiationWatts/m^2,SoftwareType,DateUTC
2013-05-29 00:23:00,61.0,61.0,-100.00,ESE,106,4.0,11.0,100,0.00,,,0.02,1.000000,,2013-05-29 04:23:00,
2013-05-29 00:33:00,61.0,61.0,-100.00,ESE,106,4.0,11.0,100,0.00,,,0.02,1.000000,,2013-05-29 04:33:00,
2013-05-29 00:42:00,61.0,61.0,-100.00,ESE,106,4.0,11.0,100,0.00,,,0.02,1.000000,,2013-05-29 04:42:00,
2013-05-29 00:52:00,61.0,61.0,-100.00,ESE,106,4.0,11.0,100,0.00,,,0.02,1.000000,,2013-05-29 04:52:00,
2013-05-29 01:22:00,61.0,61.0,-100.00,ESE,103,6.0,11.0,100,0.01,,,0.03,1.000000,,2013-05-29 05:22:00,
2013-05-29 01:33:00,61.0,61.0,-100.00,ESE,103,6.0,11.0,100,0.01,,,0.03,1.000000,,2013-05-29 05:33:00,
2013-05-29 01:42:00,61.0,61.0,-100.00,ESE,103,6.0,11.0,100,0.01,,,0.03,1.000000,,2013-05-29 05:42:00,
2013-05-29 01:52:00,61.0,61.0,-100.00,ESE,103,6.0,11.0,100,0.01,,,0.03,1.000000,,2013-05-29 05:52:00,
2013-05-29 02:22:00,61.0,61.0,-100.00,ESE,123,5.0,11.0,100,0.00,,,0.03,1.000000,,2013-05-29 06:22:00,
2013-05-29 02:32:00,61.0,61.0,-100.00,ESE,123,5.0,11.0,100,0.00,,,0.03,1.000000,,2013-05-29 06:32:00,
2013-05-29 02:42:00,61.0,61.0,-100.00,ESE,123,5.0,11.0,100,0.00,,,0.03,1.000000,,2013-05-29 06:42:00,
2013-05-29 02:52:00,61.0,61.0,-100.00,ESE,123,5.0,11.0,100,0.00,,,0.03,1.000000,,2013-05-29 06:52:00,
2013-05-29 03:22:00,61.0,61.0,-100.00,East,98,3.0,11.0,100,0.00,,,0.03,1.000000,,2013-05-29 07:22:00,
2013-05-29 03:34:00,61.0,61.0,-100.00,East,98,3.0,11.0,100,0.00,,,0.03,1.000000,,2013-05-29 07:34:00,
2013-05-29 03:42:00,61.0,61.0,-100.00,East,98,3.0,11.0,100,0.00,,,0.03,1.000000,,2013-05-29 07:42:00,
2013-05-29 03:52:00,61.0,61.0,-100.00,East,98,3.0,11.0,100,0.00,,,0.03,1.000000,,2013-05-29 07:52:00,
2013-05-29 04:22:00,62.0,62.0,-100.00,SE,129,2.0,11.0,100,0.00,,,0.03,1.000000,,2013-05-29 08:22:00,
2013-05-29 04:32:00,62.0,62.0,-100.00,SE,129,2.0,11.0,100,0.00,,,0.03,1.000000,,2013-05-29 08:32:00,
2013-05-29 04:42:00,62.0,62.0,-100.00,SE,129,2.0,11.0,100,0.00,,,0.03,1.000000,,2013-05-29 08:42:00,
2013-05-29 04:52:00,62.0,62.0,-100.00,SE,129,2.0,11.0,100,0.00,,,0.03,1.000000,,2013-05-29 08:52:00,
2013-05-29 05:22:00,61.0,61.0,-100.00,SW,221,1.0,5.0,100,0.00,,,0.03,1.000000,,2013-05-29 09:22:00,
2013-05-29 05:33:00,61.0,61.0,-100.00,SW,221,1.0,5.0,100,0.00,,,0.03,1.000000,,2013-05-29 09:33:00,
2013-05-29 05:42:00,61.0,61.0,-100.00,SW,221,1.0,5.0,100,0.00,,,0.03,1.000000,,2013-05-29 09:42:00,
2013-05-29 05:52:00,61.0,61.0,-100.00,SW,221,1.0,5.0,100,0.00,,,0.03,1.000000,,2013-05-29 09:52:00,
2013-05-29 06:22:00,61.0,61.0,-100.00,NW,324,0.0,3.0,100,0.00,,,0.03,2.000000,,2013-05-29 10:22:00,
2013-05-29 06:33:00,61.0,61.0,-100.00,NW,324,0.0,3.0,100,0.00,,,0.03,2.000000,,2013-05-29 10:33:00,
2013-05-29 06:42:00,61.0,61.0,-100.00,NW,324,0.0,3.0,100,0.00,,,0.03,2.000000,,2013-05-29 10:42:00,
2013-05-29 06:53:00,61.0,61.0,-100.00,NW,324,0.0,3.0,100,0.00,,,0.03,2.000000,,2013-05-29 10:53:00,
2013-05-29 07:22:00,61.0,61.0,-100.00,WSW,246,2.0,5.0,100,0.00,,,0.03,31.000000,,2013-05-29 11:22:00,
2013-05-29 07:32:00,61.0,61.0,-100.00,WSW,246,2.0,5.0,100,0.00,,,0.03,31.000000,,2013-05-29 11:32:00,
2013-05-29 07:42:00,61.0,61.0,-100.00,WSW,246,2.0,5.0,100,0.00,,,0.03,31.000000,,2013-05-29 11:42:00,
2013-05-29 07:52:00,61.0,61.0,-100.00,WSW,246,2.0,5.0,100,0.00,,,0.03,31.000000,,2013-05-29 11:52:00,
2013-05-29 08:22:00,66.0,66.0,-100.00,NW,326,1.0,4.0,100,0.00,,,0.03,160.000000,,2013-05-29 12:22:00,
2013-05-29 08:32:00,66.0,66.0,-100.00,NW,326,1.0,4.0,100,0.00,,,0.03,160.000000,,2013-05-29 12:32:00,
2013-05-29 08:42:00,66.0,66.0,-100.00,NW,326,1.0,4.0,100,0.00,,,0.03,160.000000,,2013-05-29 12:42:00,
2013-05-29 08:52:00,66.0,66.0,-100.00,NW,326,1.0,4.0,100,0.00,,,0.03,160.000000,,2013-05-29 12:52:00,
2013-05-29 09:22:00,71.0,71.0,-100.00,WNW,300,4.0,8.0,99,0.04,,,0.07,300.000000,,2013-05-29 13:22:00,
2013-05-29 09:32:00,71.0,71.0,-100.00,WNW,300,4.0,8.0,99,0.04,,,0.07,300.000000,,2013-05-29 13:32:00,
2013-05-29 09:42:00,71.0,71.0,-100.00,WNW,300,4.0,8.0,99,0.04,,,0.07,300.000000,,2013-05-29 13:42:00,
2013-05-29 09:53:00,71.0,71.0,-100.00,WNW,300,4.0,8.0,99,0.04,,,0.07,300.000000,,2013-05-29 13:53:00,
2013-05-29 10:22:00,74.0,69.0,-100.00,WNW,283,3.0,11.0,84,0.06,,,0.13,555.000000,,2013-05-29 14:22:00,
2013-05-29 10:32:00,74.0,69.0,-100.00,WNW,283,3.0,11.0,84,0.06,,,0.13,555.000000,,2013-05-29 14:32:00,
2013-05-29 10:42:00,74.0,69.0,-100.00,WNW,283,3.0,11.0,84,0.06,,,0.13,555.000000,,2013-05-29 14:42:00,
2013-05-29 10:52:00,74.0,69.0,-100.00,WNW,283,3.0,11.0,84,0.06,,,0.13,555.000000,,2013-05-29 14:52:00,
2013-05-29 11:21:00,77.0,67.0,-100.00,West,260,4.0,12.0,71,0.05,,,-99.99,724.000000,,2013-05-29 15:21:00,
2013-05-29 11:33:00,77.0,67.0,-100.00,West,260,4.0,12.0,71,0.05,,,-99.99,724.000000,,2013-05-29 15:33:00,
2013-05-29 11:42:00,77.0,67.0,-100.00,West,260,4.0,12.0,71,0.05,,,-99.99,724.000000,,2013-05-29 15:42:00,
2013-05-29 11:53:00,77.0,67.0,-100.00,West,260,4.0,12.0,71,0.05,,,-99.99,724.000000,,2013-05-29 15:53:00,
2013-05-29 12:22:00,79.0,67.0,-100.00,WSW,257,5.0,12.0,66,0.04,,,0.21,813.000000,,2013-05-29 16:22:00,
2013-05-29 12:33:00,79.0,67.0,-100.00,WSW,257,5.0,12.0,66,0.04,,,0.21,813.000000,,2013-05-29 16:33:00,
2013-05-29 12:42:00,79.0,67.0,-100.00,WSW,257,5.0,12.0,66,0.04,,,0.21,813.000000,,2013-05-29 16:42:00,
2013-05-29 12:52:00,79.0,67.0,-100.00,WSW,257,5.0,12.0,66,0.04,,,0.21,813.000000,,2013-05-29 16:52:00,
2013-05-29 13:22:00,80.0,67.0,-100.00,WSW,239,6.0,13.0,65,0.01,,,0.22,870.000000,,2013-05-29 17:22:00,
2013-05-29 13:32:00,80.0,67.0,-100.00,WSW,239,6.0,13.0,65,0.01,,,0.22,870.000000,,2013-05-29 17:32:00,
2013-05-29 13:42:00,80.0,67.0,-100.00,WSW,239,6.0,13.0,65,0.01,,,0.22,870.000000,,2013-05-29 17:42:00,
2013-05-29 13:52:00,80.0,67.0,-100.00,WSW,239,6.0,13.0,65,0.01,,,0.22,870.000000,,2013-05-29 17:52:00,
2013-05-29 14:22:00,82.0,67.0,-100.00,WSW,241,4.0,12.0,61,0.00,,,0.22,940.000000,,2013-05-29 18:22:00,
2013-05-29 14:32:00,82.0,67.0,-100.00,WSW,241,4.0,12.0,61,0.00,,,0.22,940.000000,,2013-05-29 18:32:00,
2013-05-29 14:42:00,82.0,67.0,-100.00,WSW,241,4.0,12.0,61,0.00,,,0.22,940.000000,,2013-05-29 18:42:00,
2013-05-29 14:52:00,82.0,67.0,-100.00,WSW,241,4.0,12.0,61,0.00,,,0.22,940.000000,,2013-05-29 18:52:00,
2013-05-29 15:22:00,81.0,67.0,-100.00,SW,229,6.0,14.0,62,0.00,,,0.22,726.000000,,2013-05-29 19:22:00,
2013-05-29 15:32:00,81.0,67.0,-100.00,SW,229,6.0,14.0,62,0.00,,,0.22,726.000000,,2013-05-29 19:32:00,
2013-05-29 15:44:00,81.0,67.0,-100.00,SW,229,6.0,14.0,62,0.00,,,0.22,726.000000,,2013-05-29 19:44:00,
2013-05-29 15:53:00,81.0,67.0,-100.00,SW,229,6.0,14.0,62,0.00,,,0.22,726.000000,,2013-05-29 19:53:00,
2013-05-29 16:23:00,83.0,69.0,-100.00,WSW,238,5.0,17.0,62,0.00,,,0.21,634.000000,,2013-05-29 20:23:00,
2013-05-29 16:33:00,83.0,69.0,-100.00,WSW,238,5.0,17.0,62,0.00,,,0.21,634.000000,,2013-05-29 20:33:00,
2013-05-29 16:42:00,83.0,69.0,-100.00,WSW,238,5.0,17.0,62,0.00,,,0.21,634.000000,,2013-05-29 20:42:00,
2013-05-29 16:52:00,83.0,69.0,-100.00,WSW,238,5.0,17.0,62,0.00,,,0.21,634.000000,,2013-05-29 20:52:00,
2013-05-29 17:22:00,84.0,67.0,-100.00,WSW,256,6.0,18.0,57,0.00,,,0.21,520.000000,,2013-05-29 21:22:00,
2013-05-29 17:33:00,84.0,67.0,-100.00,WSW,256,6.0,18.0,57,0.00,,,0.21,520.000000,,2013-05-29 21:33:00,
2013-05-29 17:43:00,84.0,67.0,-100.00,WSW,256,6.0,18.0,57,0.00,,,0.21,520.000000,,2013-05-29 21:43:00,
2013-05-29 17:53:00,84.0,67.0,-100.00,WSW,256,6.0,18.0,57,0.00,,,0.21,520.000000,,2013-05-29 21:53:00,
2013-05-29 18:23:00,84.0,67.0,-100.00,West,276,5.0,14.0,57,0.00,,,0.21,402.000000,,2013-05-29 22:23:00,
2013-05-29 18:34:00,84.0,67.0,-100.00,West,276,5.0,14.0,57,0.00,,,0.21,402.000000,,2013-05-29 22:34:00,
2013-05-29 18:42:00,84.0,67.0,-100.00,West,276,5.0,14.0,57,0.00,,,0.21,402.000000,,2013-05-29 22:42:00,
2013-05-29 18:53:00,84.0,67.0,-100.00,West,276,5.0,14.0,57,0.00,,,0.21,402.000000,,2013-05-29 22:53:00,
2013-05-29 19:22:00,82.0,64.0,-100.00,West,262,5.0,15.0,54,0.00,,,0.21,86.000000,,2013-05-29 23:22:00,
2013-05-29 19:33:00,82.0,64.0,-100.00,West,262,5.0,15.0,54,0.00,,,0.21,86.000000,,2013-05-29 23:33:00,
2013-05-29 19:42:00,82.0,64.0,-100.00,West,262,5.0,15.0,54,0.00,,,0.21,86.000000,,2013-05-29 23:42:00,
2013-05-29 19:53:00,82.0,64.0,-100.00,West,262,5.0,15.0,54,0.00,,,0.21,86.000000,,2013-05-29 23:53:00,
2013-05-29 20:22:00,75.0,67.0,-100.00,SSW,202,2.0,7.0,77,0.00,,,0.21,47.000000,,2013-05-30 00:22:00,
2013-05-29 20:32:00,75.0,67.0,-100.00,SSW,202,2.0,7.0,77,0.00,,,0.21,47.000000,,2013-05-30 00:32:00,
2013-05-29 20:42:00,75.0,67.0,-100.00,SSW,202,2.0,7.0,77,0.00,,,0.21,47.000000,,2013-05-30 00:42:00,
2013-05-29 20:52:00,75.0,67.0,-100.00,SSW,202,2.0,7.0,77,0.00,,,0.21,47.000000,,2013-05-30 00:52:00,
2013-05-29 21:22:00,71.0,67.0,-100.00,SSW,198,2.0,7.0,88,0.00,,,0.21,5.000000,,2013-05-30 01:22:00,
2013-05-29 21:32:00,71.0,67.0,-100.00,SSW,198,2.0,7.0,88,0.00,,,0.21,5.000000,,2013-05-30 01:32:00,
2013-05-29 21:42:00,71.0,67.0,-100.00,SSW,198,2.0,7.0,88,0.00,,,0.21,5.000000,,2013-05-30 01:42:00,
2013-05-29 21:52:00,71.0,67.0,-100.00,SSW,198,2.0,7.0,88,0.00,,,0.21,5.000000,,2013-05-30 01:52:00,
2013-05-29 22:22:00,68.0,68.0,-100.00,NNE,21,1.0,4.0,100,0.00,,,0.21,1.000000,,2013-05-30 02:22:00,
2013-05-29 22:32:00,68.0,68.0,-100.00,NNE,21,1.0,4.0,100,0.00,,,0.21,1.000000,,2013-05-30 02:32:00,
2013-05-29 22:42:00,68.0,68.0,-100.00,NNE,21,1.0,4.0,100,0.00,,,0.21,1.000000,,2013-05-30 02:42:00,
2013-05-29 22:52:00,68.0,68.0,-100.00,NNE,21,1.0,4.0,100,0.00,,,0.21,1.000000,,2013-05-30 02:52:00,
2013-05-29 23:21:00,66.0,66.0,-100.00,West,268,1.0,3.0,100,0.00,,,0.21,1.000000,,2013-05-30 03:21:00,
2013-05-29 23:33:00,66.0,66.0,-100.00,West,268,1.0,3.0,100,0.00,,,0.21,1.000000,,2013-05-30 03:33:00,
2013-05-29 23:43:00,66.0,66.0,-100.00,West,268,1.0,3.0,100,0.00,,,0.21,1.000000,,2013-05-30 03:43:00,
2013-05-29 23:53:00,66.0,66.0,-100.00,West,268,1.0,3.0,100,0.00,,,0.21,1.000000,,2013-05-30 03:53:00,